Main page
Satellite images 15-day forecastsClimateMarine weather Cyclones Lightning AirportsFAQ Newsletter About
Weather : Europe Africa North America South America Asia Australia-Oceania Others
Languages Contact

Liège, Belgium

Bierset

latitude: 50-39N, longitude: 005-27E, elevation: 186 m


METAR: EBLG 010320Z 17010KT CAVOK 14/09 Q1020 NOSIG
TAF: EBLG 312300Z 0100/0206 18007KT 9999 CAVOK TEMPO 0122/0206 SCT008 BKN012 PROB30 TEMPO 0200/0206 BKN008

Time: 04:47 (03:47 UTC)

Current weather observation

The report was made 27 minutes ago, at 03:20 UTC
Wind 10 kt from the South
Temperature 14°C
Humidity 72%
Pressure 1020 hPa
Visibility 10 km or more
no clouds below 1500 m and no cumulonimbus

Change units

Forecast

The report was made 4 hours and 47 minutes ago, at 23:00 UTC
Forecast valid from 01 at 00 UTC to 02 at 06 UTC
Wind 7 kt from the South
Visibility 10 km or more
no clouds below 1500 m and no cumulonimbus
Temporary
from 01 at 22 UTC to 02 at 06 UTC
Scattered clouds at a height of 800 ft
Broken clouds at a height of 1200 ft
Probability 30% :
Temporary
from 02 at 00 UTC to 02 at 06 UTC
Broken clouds at a height of 800 ft
The information on this site is subject to a disclaimer
Weather : Europe Africa North America South America Asia Australia-Oceania Others
Satellite images 15-day forecastsClimateMarine weather Cyclones Lightning AirportsFAQ Languages Contact Newsletter About